Time;durP1;ratioP1;P1;durP2;ratioP2;P2;SDS_P1;SDS_P2;PMS_P1;PMS_P2;Temp;Humidity;BMP_temperature;BMP_pressure;BME280_temperature;BME280_humidity;BME280_pressure;Samples;Min_cycle;Max_cycle;Signal;HPM_P1;HPM_P2
2021/09/24 00:01:06;;;;;;;0.50;0.20;;;16.80;85.70;;;;;;4838331;29;20499;-81
2021/09/24 00:03:34;;;;;;;1.13;0.32;;;16.90;85.80;;;;;;4840552;29;20121;-81
2021/09/24 00:06:03;;;;;;;3.28;0.50;;;16.80;85.90;;;;;;4821907;29;20042;-80
2021/09/24 00:08:31;;;;;;;1.48;0.60;;;16.80;85.90;;;;;;4839239;29;20050;-81
2021/09/24 00:10:58;;;;;;;2.58;0.80;;;16.80;85.90;;;;;;4840098;29;20045;-81
2021/09/24 00:13:25;;;;;;;1.80;0.50;;;16.80;85.90;;;;;;4839065;29;20511;-81
2021/09/24 00:15:53;;;;;;;1.30;0.52;;;16.80;85.90;;;;;;4841816;29;20142;-81
2021/09/24 00:18:20;;;;;;;2.35;0.50;;;16.80;86.00;;;;;;4835369;29;20042;-81
2021/09/24 00:20:47;;;;;;;2.33;0.40;;;16.80;85.90;;;;;;4835040;29;20042;-81
2021/09/24 00:23:15;;;;;;;2.08;0.50;;;16.80;86.00;;;;;;4810393;29;20045;-81
2021/09/24 00:25:42;;;;;;;1.08;0.50;;;16.80;86.10;;;;;;4832871;29;20034;-81
2021/09/24 00:28:09;;;;;;;2.75;0.57;;;16.80;86.10;;;;;;4844618;29;20124;-81
2021/09/24 00:30:37;;;;;;;3.13;0.70;;;16.80;86.10;;;;;;4847562;29;20054;-80
2021/09/24 00:33:04;;;;;;;1.98;0.40;;;16.80;86.10;;;;;;4818684;29;20160;-80
2021/09/24 00:35:31;;;;;;;2.35;0.45;;;16.80;86.20;;;;;;4806844;29;20590;-81
2021/09/24 00:37:59;;;;;;;2.33;0.50;;;16.80;86.20;;;;;;4836193;29;20058;-82
2021/09/24 00:40:26;;;;;;;1.58;0.50;;;16.70;86.20;;;;;;4806537;29;20077;-80
2021/09/24 00:42:53;;;;;;;3.30;0.40;;;16.70;86.30;;;;;;4805265;29;20058;-81
2021/09/24 00:45:20;;;;;;;3.38;0.55;;;16.70;86.30;;;;;;4818403;29;20049;-76
2021/09/24 00:47:47;;;;;;;0.98;0.55;;;16.70;86.30;;;;;;4820450;29;20578;-76
2021/09/24 00:50:14;;;;;;;3.45;0.50;;;16.70;86.40;;;;;;4804804;29;20480;-75
2021/09/24 00:52:41;;;;;;;3.50;0.50;;;16.80;86.60;;;;;;4806833;29;20050;-75
2021/09/24 00:55:09;;;;;;;2.13;0.38;;;16.80;86.30;;;;;;4820068;29;20046;-75
2021/09/24 00:57:36;;;;;;;3.00;0.73;;;16.80;86.30;;;;;;4818037;29;20057;-75
2021/09/24 01:00:04;;;;;;;1.42;0.60;;;16.80;86.30;;;;;;4819357;29;20042;-75
2021/09/24 01:02:31;;;;;;;2.03;0.63;;;16.80;86.30;;;;;;4838077;29;20153;-75
2021/09/24 01:04:59;;;;;;;2.38;0.60;;;16.80;86.30;;;;;;4834455;29;20453;-76
2021/09/24 01:07:26;;;;;;;2.40;0.60;;;16.70;86.20;;;;;;4833905;29;20060;-74
2021/09/24 01:09:55;;;;;;;2.85;0.55;;;16.80;86.30;;;;;;4821099;29;20046;-75
2021/09/24 01:12:23;;;;;;;3.85;0.68;;;16.80;86.30;;;;;;4817143;29;20053;-75
2021/09/24 01:14:58;;;;;;;2.72;0.40;;;16.80;86.30;;;;;;4805957;29;20751;-75
2021/09/24 01:17:25;;;;;;;2.55;0.60;;;16.80;86.30;;;;;;4833288;29;20121;-74
2021/09/24 01:19:53;;;;;;;3.42;0.77;;;16.80;86.30;;;;;;4817675;29;20042;-77
2021/09/24 01:22:20;;;;;;;2.33;0.73;;;16.70;86.30;;;;;;4817195;29;20046;-76
2021/09/24 01:24:47;;;;;;;3.25;0.63;;;16.70;86.30;;;;;;4834745;29;20038;-75
2021/09/24 01:27:15;;;;;;;2.17;0.50;;;16.70;86.30;;;;;;4819517;29;20050;-76
2021/09/24 01:29:42;;;;;;;1.80;0.50;;;16.70;86.30;;;;;;4833044;29;20050;-75
2021/09/24 01:32:09;;;;;;;2.28;0.52;;;16.70;86.30;;;;;;4835090;29;20046;-75
2021/09/24 01:34:36;;;;;;;3.42;0.40;;;16.70;86.30;;;;;;4817090;29;20078;-76
2021/09/24 01:37:03;;;;;;;2.97;0.50;;;16.70;86.40;;;;;;4818765;29;20499;-76
2021/09/24 01:39:30;;;;;;;1.75;0.50;;;16.80;86.40;;;;;;4818391;29;20046;-76
2021/09/24 01:41:57;;;;;;;1.10;0.40;;;16.70;86.40;;;;;;4806189;29;20585;-75
2021/09/24 01:44:24;;;;;;;1.90;0.50;;;16.70;86.40;;;;;;4833468;29;20491;-75
2021/09/24 01:46:53;;;;;;;1.90;0.70;;;16.70;86.40;;;;;;4831211;29;20096;-75
2021/09/24 01:49:20;;;;;;;3.70;0.77;;;16.70;86.40;;;;;;4832851;29;20153;-75
2021/09/24 01:51:48;;;;;;;2.47;0.47;;;16.70;86.40;;;;;;4817537;29;20046;-75
2021/09/24 01:54:18;;;;;;;2.80;0.50;;;16.70;86.40;;;;;;4832039;29;20053;-76
2021/09/24 01:56:45;;;;;;;1.50;0.40;;;16.70;86.50;;;;;;4821208;29;20066;-75
2021/09/24 01:59:12;;;;;;;3.63;0.70;;;16.70;86.50;;;;;;4833965;29;20056;-75
2021/09/24 02:01:40;;;;;;;2.05;0.68;;;16.70;86.40;;;;;;4833312;29;20058;-75
2021/09/24 02:04:07;;;;;;;2.63;0.50;;;16.70;86.50;;;;;;4833951;29;20050;-75
2021/09/24 02:06:34;;;;;;;2.15;0.60;;;16.70;86.50;;;;;;4832351;29;20444;-75
2021/09/24 02:09:01;;;;;;;1.75;0.50;;;16.70;86.50;;;;;;4843991;29;20053;-75
2021/09/24 02:11:28;;;;;;;2.65;0.55;;;16.70;86.50;;;;;;4805042;29;20045;-75
2021/09/24 02:13:55;;;;;;;1.33;0.50;;;16.70;86.60;;;;;;4819774;29;20142;-75
2021/09/24 02:16:22;;;;;;;2.55;0.52;;;16.70;86.60;;;;;;4833455;29;20046;-75
2021/09/24 02:18:49;;;;;;;1.77;0.38;;;16.70;86.60;;;;;;4816950;29;20487;-76
2021/09/24 02:21:16;;;;;;;1.48;0.50;;;16.60;86.60;;;;;;4818363;29;20484;-76
2021/09/24 02:23:43;;;;;;;2.95;0.50;;;16.70;86.70;;;;;;4834260;29;20391;-76
2021/09/24 02:26:10;;;;;;;2.38;0.73;;;16.70;86.70;;;;;;4836671;29;20046;-75
2021/09/24 02:28:38;;;;;;;1.67;0.50;;;16.70;86.70;;;;;;4816571;29;20053;-75
2021/09/24 02:31:08;;;;;;;1.80;0.52;;;16.70;86.70;;;;;;4806223;29;20133;-76
2021/09/24 02:33:36;;;;;;;1.77;0.60;;;16.70;86.70;;;;;;4834170;29;20050;-76
2021/09/24 02:36:05;;;;;;;2.10;0.57;;;16.70;86.70;;;;;;4835156;29;20037;-76
2021/09/24 02:38:33;;;;;;;2.60;0.70;;;16.70;86.70;;;;;;4832658;29;20046;-75
2021/09/24 02:41:01;;;;;;;1.50;0.63;;;16.70;86.70;;;;;;4832800;29;20046;-76
2021/09/24 02:43:28;;;;;;;2.38;0.50;;;16.70;86.70;;;;;;4819248;29;20046;-76
2021/09/24 02:45:55;;;;;;;1.95;0.50;;;16.70;86.70;;;;;;4834434;29;20128;-75
2021/09/24 02:48:22;;;;;;;2.20;0.65;;;16.70;86.80;;;;;;4819680;29;20049;-75
2021/09/24 02:50:49;;;;;;;1.33;0.47;;;16.70;86.80;;;;;;4821466;29;20050;-75
2021/09/24 02:53:16;;;;;;;2.28;0.60;;;16.70;86.80;;;;;;4816437;29;20935;-75
2021/09/24 02:55:43;;;;;;;3.42;0.80;;;16.70;87.40;;;;;;4821542;29;20044;-75
2021/09/24 02:58:11;;;;;;;3.35;0.80;;;16.70;86.80;;;;;;4820700;29;20407;-76
2021/09/24 03:00:40;;;;;;;5.05;1.10;;;16.70;86.80;;;;;;4808386;29;20336;-76
2021/09/24 03:03:07;;;;;;;2.00;0.75;;;16.70;86.90;;;;;;4825251;29;20074;-76
2021/09/24 03:05:35;;;;;;;3.97;0.85;;;16.70;86.80;;;;;;4826071;29;20053;-75
2021/09/24 03:08:03;;;;;;;1.92;0.82;;;16.70;86.90;;;;;;4838268;29;20038;-76
2021/09/24 03:10:30;;;;;;;2.90;0.82;;;16.70;86.90;;;;;;4838663;29;20057;-76
2021/09/24 03:12:57;;;;;;;1.33;0.52;;;16.70;86.90;;;;;;4822494;29;20102;-76
2021/09/24 03:15:24;;;;;;;1.70;0.65;;;16.70;86.90;;;;;;4837855;29;20049;-76
2021/09/24 03:17:51;;;;;;;3.00;0.65;;;16.70;86.90;;;;;;4838674;29;20098;-76
2021/09/24 03:20:18;;;;;;;4.65;0.68;;;16.70;87.00;;;;;;4821542;29;20054;-75
2021/09/24 03:22:45;;;;;;;3.47;0.70;;;16.60;86.90;;;;;;4837050;29;20049;-75
2021/09/24 03:25:12;;;;;;;2.95;0.95;;;16.70;87.00;;;;;;4834408;29;20069;-75
2021/09/24 03:27:40;;;;;;;2.30;0.75;;;16.70;87.00;;;;;;4837487;29;20058;-75
2021/09/24 03:30:08;;;;;;;1.48;0.40;;;16.60;87.00;;;;;;4834347;29;20077;-75
2021/09/24 03:32:35;;;;;;;2.83;0.50;;;16.60;87.00;;;;;;4852497;29;20796;-75
2021/09/24 03:35:03;;;;;;;3.65;0.90;;;16.60;87.00;;;;;;4834283;29;20042;-75
2021/09/24 03:37:30;;;;;;;2.38;0.60;;;16.60;87.10;;;;;;4849443;29;20055;-75
2021/09/24 03:39:57;;;;;;;2.03;0.50;;;16.60;87.10;;;;;;4819538;29;20456;-75
2021/09/24 03:42:25;;;;;;;2.88;0.70;;;16.60;87.20;;;;;;4835667;29;20463;-76
2021/09/24 03:44:52;;;;;;;3.28;1.00;;;16.50;87.20;;;;;;4807644;29;20064;-75
2021/09/24 03:47:19;;;;;;;2.90;0.65;;;16.50;87.20;;;;;;4835884;29;20069;-75
2021/09/24 03:49:47;;;;;;;4.40;0.70;;;16.50;87.30;;;;;;4836982;29;20891;-75
2021/09/24 03:52:17;;;;;;;2.55;0.73;;;16.40;87.40;;;;;;4835190;29;20053;-75
2021/09/24 03:54:44;;;;;;;2.10;0.60;;;16.40;87.50;;;;;;4807500;29;20061;-75
2021/09/24 03:57:11;;;;;;;1.42;0.73;;;16.30;87.60;;;;;;4808932;29;20060;-76
2021/09/24 03:59:38;;;;;;;2.67;1.00;;;16.20;87.70;;;;;;4836809;29;20484;-76
2021/09/24 04:02:05;;;;;;;4.13;1.10;;;16.20;87.80;;;;;;4805694;29;20142;-76
2021/09/24 04:04:32;;;;;;;1.83;0.80;;;16.20;87.90;;;;;;4822626;29;20041;-76
2021/09/24 04:06:59;;;;;;;3.03;0.73;;;16.20;87.90;;;;;;4818596;29;21785;-76
2021/09/24 04:09:26;;;;;;;4.20;0.90;;;16.20;87.90;;;;;;4818515;29;20061;-76
2021/09/24 04:11:53;;;;;;;4.97;0.90;;;16.20;87.90;;;;;;4811331;29;20038;-75
2021/09/24 04:14:20;;;;;;;4.80;1.48;;;16.20;87.90;;;;;;4837444;29;20456;-76
2021/09/24 04:16:47;;;;;;;4.38;1.48;;;16.20;87.90;;;;;;4803988;29;20551;-76
2021/09/24 04:19:14;;;;;;;3.00;1.38;;;16.20;87.90;;;;;;4836244;29;20049;-76
2021/09/24 04:21:41;;;;;;;3.85;1.50;;;16.20;87.90;;;;;;4803506;29;20054;-76
2021/09/24 04:24:08;;;;;;;4.53;1.95;;;16.20;87.90;;;;;;4833087;29;20046;-76
2021/09/24 04:26:35;;;;;;;5.53;2.15;;;16.20;87.90;;;;;;4823037;29;20111;-76
2021/09/24 04:29:05;;;;;;;3.15;1.17;;;16.20;87.90;;;;;;4807194;29;20051;-81
2021/09/24 04:31:32;;;;;;;7.47;2.22;;;16.20;87.90;;;;;;4834695;29;20042;-81
2021/09/24 04:33:59;;;;;;;3.67;1.55;;;16.20;87.90;;;;;;4837005;29;20065;-81
2021/09/24 04:36:26;;;;;;;5.63;2.63;;;16.20;87.90;;;;;;4822827;29;20068;-81
2021/09/24 04:38:55;;;;;;;6.20;2.95;;;16.20;87.90;;;;;;4823276;29;20073;-81
2021/09/24 04:41:22;;;;;;;7.78;4.35;;;16.20;87.90;;;;;;4850987;29;20107;-81
2021/09/24 04:43:50;;;;;;;6.93;3.42;;;16.20;88.00;;;;;;4820764;29;20046;-82
2021/09/24 04:46:16;;;;;;;5.60;3.20;;;16.20;88.00;;;;;;4821491;29;20050;-82
2021/09/24 04:48:44;;;;;;;6.10;3.38;;;16.30;88.10;;;;;;4838853;29;20053;-82
2021/09/24 04:51:11;;;;;;;6.95;3.55;;;16.30;88.10;;;;;;4815227;29;20053;-82
2021/09/24 04:53:38;;;;;;;7.07;4.25;;;16.30;88.10;;;;;;4822255;29;20050;-81
2021/09/24 04:56:05;;;;;;;10.32;4.07;;;16.30;88.00;;;;;;4834381;29;20487;-81
2021/09/24 04:58:33;;;;;;;9.90;5.47;;;16.30;88.10;;;;;;4830248;29;20054;-82
2021/09/24 05:01:00;;;;;;;13.35;7.20;;;16.30;88.80;;;;;;4823447;29;20058;-81
2021/09/24 05:03:27;;;;;;;15.95;7.38;;;16.30;88.20;;;;;;4821908;29;20066;-77
2021/09/24 05:05:55;;;;;;;11.38;6.20;;;16.30;88.30;;;;;;4833468;29;20041;-77
2021/09/24 05:08:22;;;;;;;11.65;6.28;;;16.30;88.40;;;;;;4820233;29;20045;-77
2021/09/24 05:10:49;;;;;;;11.18;5.88;;;16.30;88.40;;;;;;4835731;29;20079;-77
2021/09/24 05:13:16;;;;;;;11.15;5.40;;;16.30;88.40;;;;;;4810696;29;20099;-77
2021/09/24 05:15:43;;;;;;;10.60;5.07;;;16.30;88.50;;;;;;4820879;29;20042;-77
2021/09/24 05:18:10;;;;;;;11.57;5.72;;;16.40;88.50;;;;;;4818896;29;20046;-77
2021/09/24 05:20:37;;;;;;;13.50;5.50;;;16.40;88.50;;;;;;4802765;29;20054;-77
2021/09/24 05:23:04;;;;;;;11.73;5.63;;;16.40;88.50;;;;;;4802422;29;20057;-77
2021/09/24 05:25:31;;;;;;;13.75;5.72;;;16.40;88.50;;;;;;4803643;29;20057;-77
2021/09/24 05:27:58;;;;;;;11.35;5.53;;;16.40;88.50;;;;;;4818355;29;20043;-77
2021/09/24 05:30:25;;;;;;;14.20;6.43;;;16.40;88.50;;;;;;4819697;29;20077;-77
2021/09/24 05:32:53;;;;;;;12.07;5.53;;;16.40;88.60;;;;;;4821074;29;20194;-77
2021/09/24 05:35:21;;;;;;;13.43;6.22;;;16.50;88.70;;;;;;4824219;29;20541;-77
2021/09/24 05:37:48;;;;;;;10.10;4.95;;;16.40;88.60;;;;;;4833587;29;20503;-77
2021/09/24 05:40:15;;;;;;;12.68;5.25;;;16.40;88.70;;;;;;4823552;29;20077;-76
2021/09/24 05:42:42;;;;;;;11.93;5.68;;;16.50;88.80;;;;;;4817395;29;20564;-77
2021/09/24 05:45:13;;;;;;;10.93;5.78;;;16.50;88.80;;;;;;4824096;29;20094;-77
2021/09/24 05:47:42;;;;;;;13.18;5.95;;;16.50;88.80;;;;;;4833981;29;20524;-77
2021/09/24 05:50:12;;;;;;;14.52;7.05;;;16.50;88.80;;;;;;4822707;29;20050;-76
2021/09/24 05:52:45;;;;;;;12.93;5.72;;;16.60;89.00;;;;;;4823252;29;22009;-77
2021/09/24 05:55:13;;;;;;;13.65;5.65;;;16.60;88.90;;;;;;4834664;29;20053;-77
2021/09/24 05:57:41;;;;;;;10.88;4.72;;;16.60;88.90;;;;;;4836891;29;20049;-77
2021/09/24 06:00:10;;;;;;;14.73;5.82;;;16.60;88.90;;;;;;4821489;29;20057;-77
2021/09/24 06:02:40;;;;;;;14.20;5.25;;;16.60;88.90;;;;;;4820199;29;20061;-77
2021/09/24 06:05:08;;;;;;;12.10;4.95;;;16.70;89.00;;;;;;4836370;29;20062;-77
2021/09/24 06:07:35;;;;;;;12.88;6.35;;;16.70;88.90;;;;;;4820304;29;20038;-77
2021/09/24 06:10:05;;;;;;;13.20;6.18;;;16.80;88.90;;;;;;4834128;29;20034;-77
2021/09/24 06:12:32;;;;;;;13.63;6.07;;;16.80;88.90;;;;;;4838929;29;20362;-77
2021/09/24 06:15:01;;;;;;;15.35;5.82;;;16.80;88.90;;;;;;4837315;29;20538;-77
2021/09/24 06:17:28;;;;;;;11.70;5.22;;;16.80;88.90;;;;;;4836176;29;20049;-77
2021/09/24 06:19:56;;;;;;;14.80;5.20;;;16.90;89.00;;;;;;4824366;29;20499;-77
2021/09/24 06:22:24;;;;;;;17.00;6.35;;;16.90;88.90;;;;;;4830366;29;20548;-77
2021/09/24 06:24:52;;;;;;;18.13;8.15;;;16.90;88.90;;;;;;4818411;29;20495;-77
2021/09/24 06:27:19;;;;;;;13.65;6.15;;;16.90;89.00;;;;;;4830356;29;20106;-77
2021/09/24 06:29:49;;;;;;;18.58;8.95;;;16.90;89.00;;;;;;4805744;29;20130;-77
2021/09/24 06:32:16;;;;;;;19.60;8.98;;;16.90;89.10;;;;;;4845119;29;20046;-77
2021/09/24 06:34:45;;;;;;;24.17;9.25;;;16.90;89.10;;;;;;4822854;29;20077;-77
2021/09/24 06:37:13;;;;;;;17.73;8.30;;;17.00;89.20;;;;;;4839183;29;20148;-77
2021/09/24 06:39:40;;;;;;;24.05;10.80;;;17.00;89.20;;;;;;4830223;29;20046;-77
2021/09/24 06:42:07;;;;;;;20.13;9.30;;;17.00;89.20;;;;;;4823289;29;20541;-77
2021/09/24 06:44:34;;;;;;;13.77;7.35;;;17.00;89.20;;;;;;4832507;29;20045;-77
2021/09/24 06:47:02;;;;;;;17.30;7.93;;;17.00;89.30;;;;;;4837753;29;20144;-77
2021/09/24 06:49:29;;;;;;;20.65;9.85;;;17.00;89.30;;;;;;4808146;29;20566;-77
2021/09/24 06:51:59;;;;;;;18.10;7.95;;;17.00;89.40;;;;;;4806414;29;20046;-76
2021/09/24 06:54:27;;;;;;;18.30;8.68;;;17.00;89.40;;;;;;4807258;29;20450;-77
2021/09/24 06:56:54;;;;;;;19.80;9.13;;;17.10;89.50;;;;;;4810512;29;20367;-80
2021/09/24 06:59:21;;;;;;;20.33;10.18;;;17.10;89.60;;;;;;4826240;29;20141;-79
2021/09/24 07:01:48;;;;;;;20.73;9.60;;;17.10;89.60;;;;;;4838384;29;20058;-78
2021/09/24 07:04:16;;;;;;;16.75;9.30;;;17.00;89.60;;;;;;4822616;29;20052;-81
2021/09/24 07:06:44;;;;;;;17.85;8.25;;;17.00;89.70;;;;;;4843553;29;20046;-82
2021/09/24 07:09:11;;;;;;;15.10;7.72;;;17.10;89.70;;;;;;4843302;29;20050;-81
2021/09/24 07:11:38;;;;;;;16.25;8.85;;;17.10;89.70;;;;;;4828638;29;20114;-86
2021/09/24 07:14:08;;;;;;;9.52;5.32;;;17.10;89.70;;;;;;4827653;29;20054;-87
2021/09/24 07:16:37;;;;;;;14.63;6.72;;;17.10;89.70;;;;;;4842377;29;20054;-86
2021/09/24 07:19:05;;;;;;;13.63;7.32;;;17.10;89.70;;;;;;4839091;29;20132;-85
2021/09/24 07:21:33;;;;;;;13.70;7.38;;;17.20;89.70;;;;;;4833264;29;20499;-81
2021/09/24 07:24:01;;;;;;;11.90;6.47;;;17.20;89.60;;;;;;4843270;29;20427;-86
2021/09/24 07:26:29;;;;;;;15.68;6.90;;;17.30;89.70;;;;;;4804997;29;20073;-89
2021/09/24 07:28:58;;;;;;;15.85;7.25;;;17.30;89.60;;;;;;4828163;29;20403;-83
2021/09/24 07:31:26;;;;;;;15.07;7.07;;;17.30;89.60;;;;;;4826370;29;20411;-83
2021/09/24 07:33:53;;;;;;;18.73;8.30;;;17.30;89.50;;;;;;4843337;29;20046;-83
2021/09/24 07:36:21;;;;;;;14.98;6.90;;;17.30;89.50;;;;;;4843034;29;20054;-83
2021/09/24 07:38:48;;;;;;;16.80;7.53;;;17.40;89.60;;;;;;4828212;29;20050;-83
2021/09/24 07:41:17;;;;;;;15.90;7.68;;;17.40;89.60;;;;;;4827762;29;20056;-86
2021/09/24 07:43:47;;;;;;;16.88;8.50;;;17.40;89.60;;;;;;4827190;29;20066;-84
2021/09/24 07:46:15;;;;;;;18.60;9.57;;;17.40;89.60;;;;;;4842455;29;20046;-85
2021/09/24 07:48:43;;;;;;;23.90;10.30;;;17.40;89.60;;;;;;4825384;29;20066;-79
2021/09/24 07:51:11;;;;;;;23.90;11.13;;;17.40;89.60;;;;;;4843713;29;20495;-83
2021/09/24 07:53:38;;;;;;;19.42;9.20;;;17.40;89.60;;;;;;4825925;29;20073;-84
2021/09/24 07:56:13;;;;;;;17.48;8.55;;;17.40;89.50;;;;;;4825142;29;20099;-83
2021/09/24 07:58:40;;;;;;;19.08;8.55;;;17.50;89.50;;;;;;4826605;29;20099;-84
2021/09/24 08:01:10;;;;;;;21.40;10.13;;;17.50;89.50;;;;;;4842766;29;20081;-83
2021/09/24 08:03:38;;;;;;;17.13;8.68;;;17.50;89.50;;;;;;4842583;29;20464;-82
2021/09/24 08:06:06;;;;;;;16.67;7.18;;;17.60;90.00;;;;;;4824629;29;20059;-86
2021/09/24 08:08:39;;;;;;;22.05;9.45;;;17.60;89.50;;;;;;4808106;29;20058;-87
2021/09/24 08:11:06;;;;;;;15.48;7.88;;;17.60;89.40;;;;;;4843358;29;20046;-89
2021/09/24 08:13:33;;;;;;;19.58;8.52;;;17.70;89.30;;;;;;4810421;29;20047;-89
2021/09/24 08:16:00;;;;;;;20.60;9.45;;;17.70;89.20;;;;;;4812890;29;20152;-88
2021/09/24 08:18:27;;;;;;;14.40;7.10;;;17.70;89.20;;;;;;4815852;29;20487;-85
2021/09/24 08:20:54;;;;;;;15.27;7.32;;;17.80;89.20;;;;;;4842390;29;20052;-88
2021/09/24 08:23:22;;;;;;;13.65;6.47;;;17.80;89.20;;;;;;4827845;29;20042;-88
2021/09/24 08:25:49;;;;;;;19.35;7.30;;;17.80;89.20;;;;;;4843534;29;20094;-88
2021/09/24 08:28:16;;;;;;;20.17;9.02;;;17.80;89.20;;;;;;4827413;29;20054;-80
2021/09/24 08:30:44;;;;;;;15.45;6.95;;;17.80;89.20;;;;;;4826397;29;20472;-78
2021/09/24 08:33:14;;;;;;;17.33;8.50;;;17.80;89.20;;;;;;4841636;29;20073;-78
2021/09/24 08:35:42;;;;;;;22.20;10.00;;;17.80;89.20;;;;;;4826706;29;20046;-77
2021/09/24 08:38:10;;;;;;;21.42;8.82;;;17.80;89.20;;;;;;4836173;29;20046;-76
2021/09/24 08:40:38;;;;;;;20.98;8.95;;;17.80;89.20;;;;;;4824585;29;20507;-76
2021/09/24 08:43:05;;;;;;;20.95;9.13;;;17.80;89.10;;;;;;4824047;29;20054;-77
2021/09/24 08:45:33;;;;;;;24.15;9.55;;;17.90;89.20;;;;;;4826023;29;20056;-79
2021/09/24 08:48:05;;;;;;;26.40;10.57;;;17.90;89.10;;;;;;4824795;29;20042;-75
2021/09/24 08:50:35;;;;;;;27.30;11.00;;;17.90;89.00;;;;;;4836711;29;20038;-74
2021/09/24 08:53:03;;;;;;;18.38;8.85;;;18.00;89.10;;;;;;4836284;29;20067;-75
2021/09/24 08:55:31;;;;;;;27.77;10.57;;;18.00;89.00;;;;;;4839952;29;20041;-78
2021/09/24 08:57:59;;;;;;;17.27;7.55;;;18.10;89.00;;;;;;4840372;29;20042;-77
2021/09/24 09:00:28;;;;;;;15.80;8.05;;;18.10;88.80;;;;;;4838325;29;20038;-77
2021/09/24 09:03:10;;;;;;;20.48;9.77;;;18.20;88.80;;;;;;4838945;29;20522;-78
2021/09/24 09:05:45;;;;;;;18.45;8.25;;;18.30;88.50;;;;;;4840653;29;20141;-77
2021/09/24 09:08:23;;;;;;;16.75;7.95;;;18.30;88.40;;;;;;4825946;29;20491;-77
2021/09/24 09:10:57;;;;;;;16.77;7.40;;;18.50;88.40;;;;;;4835013;29;20046;-78
2021/09/24 09:13:40;;;;;;;14.18;7.00;;;18.50;88.20;;;;;;4825102;29;20041;-77
2021/09/24 09:16:14;;;;;;;25.35;9.93;;;18.70;88.00;;;;;;4841618;29;20534;-76
2021/09/24 09:18:44;;;;;;;18.75;7.65;;;18.80;87.90;;;;;;4836430;29;20042;-78
2021/09/24 09:21:13;;;;;;;17.23;8.32;;;18.90;87.70;;;;;;4822997;29;20103;-78
2021/09/24 09:23:47;;;;;;;18.42;8.95;;;19.00;88.10;;;;;;4837240;29;20094;-78
2021/09/24 09:26:16;;;;;;;22.98;11.27;;;19.20;87.20;;;;;;4820708;29;20491;-75
2021/09/24 09:28:55;;;;;;;27.60;12.75;;;19.30;86.80;;;;;;4834578;29;20045;-75
2021/09/24 09:31:26;;;;;;;21.08;12.20;;;19.40;86.40;;;;;;4848095;29;20037;-78
2021/09/24 09:33:55;;;;;;;19.33;10.85;;;19.50;86.20;;;;;;4839445;29;20411;-78
2021/09/24 09:36:33;;;;;;;19.42;10.02;;;19.60;86.10;;;;;;4834565;29;20034;-78
2021/09/24 09:39:09;;;;;;;19.55;10.70;;;19.70;85.90;;;;;;4837306;29;20057;-76
2021/09/24 09:41:45;;;;;;;16.75;9.75;;;19.90;85.60;;;;;;4837333;29;20053;-75
2021/09/24 09:44:28;;;;;;;19.15;10.13;;;20.00;85.40;;;;;;4853570;29;20049;-79
2021/09/24 09:46:56;;;;;;;18.60;10.45;;;20.00;85.00;;;;;;4832553;29;20045;-79
2021/09/24 09:49:28;;;;;;;18.20;10.82;;;20.00;84.90;;;;;;4838984;29;20046;-79
2021/09/24 09:52:22;;;;;;;23.52;12.65;;;20.00;84.90;;;;;;4824253;29;20053;-78
2021/09/24 09:54:48;;;;;;;15.90;8.32;;;20.00;84.70;;;;;;4820343;29;20066;-79
2021/09/24 09:57:18;;;;;;;13.30;7.82;;;19.90;85.00;;;;;;4841763;29;20446;-79
2021/09/24 09:59:50;;;;;;;16.08;9.45;;;19.90;85.00;;;;;;4840782;29;20090;-82
2021/09/24 10:02:22;;;;;;;19.92;13.13;;;20.00;84.80;;;;;;4831823;29;20089;-80
2021/09/24 10:04:52;;;;;;;18.02;11.07;;;19.90;84.20;;;;;;4840529;29;20054;-81
2021/09/24 10:07:25;;;;;;;14.65;9.43;;;19.80;84.30;;;;;;4839811;29;20157;-81
2021/09/24 10:10:11;;;;;;;16.80;11.02;;;19.90;84.50;;;;;;4840441;29;20050;-84
2021/09/24 10:12:40;;;;;;;16.67;10.15;;;19.90;84.10;;;;;;4840241;29;20049;-81
2021/09/24 10:15:09;;;;;;;14.25;8.68;;;19.90;84.20;;;;;;4837850;29;20054;-82
2021/09/24 10:17:37;;;;;;;14.00;8.52;;;20.00;84.90;;;;;;4822354;29;20045;-78
2021/09/24 10:20:06;;;;;;;13.25;8.63;;;20.10;84.10;;;;;;4833480;29;20057;-86
2021/09/24 10:22:33;;;;;;;13.23;8.90;;;20.20;83.70;;;;;;4840052;29;20072;-84
2021/09/24 10:25:01;;;;;;;15.02;10.15;;;20.30;83.40;;;;;;4840590;29;20137;-85
2021/09/24 10:27:44;;;;;;;11.95;9.60;;;20.30;83.00;;;;;;4839922;29;20091;-83
2021/09/24 10:30:24;;;;;;;13.45;8.50;;;20.30;82.80;;;;;;4825327;29;20522;-81
2021/09/24 10:33:01;;;;;;;10.82;7.20;;;20.30;82.90;;;;;;4841266;29;20091;-82
2021/09/24 10:35:46;;;;;;;10.27;6.78;;;20.40;82.80;;;;;;4820473;29;20557;-82
2021/09/24 10:38:14;;;;;;;8.77;5.85;;;20.50;82.50;;;;;;4814452;29;20106;-82
2021/09/24 10:41:03;;;;;;;9.30;6.18;;;20.50;82.50;;;;;;4809645;29;20060;-82
2021/09/24 10:43:45;;;;;;;9.27;5.88;;;20.70;82.30;;;;;;4841535;29;20045;-85
2021/09/24 10:46:24;;;;;;;8.23;5.68;;;20.80;82.10;;;;;;4840089;29;20050;-84
2021/09/24 10:49:15;;;;;;;8.15;4.78;;;20.80;81.60;;;;;;4832498;29;20073;-85
2021/09/24 10:51:57;;;;;;;7.38;5.45;;;21.00;81.70;;;;;;4839470;29;20078;-83
2021/09/24 10:54:25;;;;;;;8.95;6.30;;;21.10;81.20;;;;;;4834199;29;20065;-81
2021/09/24 10:57:08;;;;;;;8.30;5.78;;;21.10;81.00;;;;;;4839510;29;20760;-81
2021/09/24 10:59:35;;;;;;;8.57;6.40;;;21.20;80.70;;;;;;4822134;29;20050;-83
2021/09/24 11:02:36;;;;;;;7.38;5.25;;;21.10;80.60;;;;;;4839788;29;20093;-82
2021/09/24 11:05:06;;;;;;;8.13;6.10;;;21.20;80.50;;;;;;4831704;29;20483;-82
2021/09/24 11:07:42;;;;;;;6.97;4.55;;;21.10;80.50;;;;;;4824550;29;20099;-90
2021/09/24 11:10:41;;;;;;;8.52;4.97;;;21.10;80.50;;;;;;4842192;29;20105;-88
2021/09/24 11:13:11;;;;;;;10.07;5.27;;;21.20;80.20;;;;;;4828720;29;20117;-89
2021/09/24 11:16:03;;;;;;;9.60;6.32;;;21.20;80.10;;;;;;4851677;29;20291;-88
2021/09/24 11:19:00;;;;;;;8.98;6.43;;;21.20;79.80;;;;;;4845205;29;20054;-90
2021/09/24 11:21:30;;;;;;;9.10;5.75;;;21.20;79.50;;;;;;4850630;29;20141;-90
2021/09/24 11:24:03;;;;;;;7.05;4.43;;;21.20;79.60;;;;;;4830035;29;20046;-91
2021/09/24 11:27:03;;;;;;;7.65;5.18;;;21.20;79.60;;;;;;4831418;29;20049;-87
2021/09/24 11:30:52;;;;;;;8.90;6.05;;;21.30;79.20;;;;;;4837970;29;20090;-91
2021/09/24 11:33:52;;;;;;;13.95;6.85;;;21.30;79.20;;;;;;4801981;29;20153;-90
2021/09/24 11:37:00;;;;;;;9.55;6.57;;;21.30;78.90;;;;;;4792284;29;20146;-88
2021/09/24 11:40:17;;;;;;;13.30;9.15;;;21.30;78.50;;;;;;4770409;29;20073;-89
2021/09/24 11:42:52;;;;;;;10.07;7.50;;;21.30;78.10;;;;;;4804736;29;20050;-86
2021/09/24 11:45:29;;;;;;;12.90;8.63;;;21.30;78.10;;;;;;4793477;29;20047;-90
2021/09/24 11:48:03;;;;;;;12.80;8.05;;;21.40;78.00;;;;;;4787902;30;20472;-84
2021/09/24 11:50:31;;;;;;;10.45;7.95;;;21.40;77.90;;;;;;4805820;29;20092;-83
2021/09/24 11:53:02;;;;;;;10.45;7.07;;;21.50;77.80;;;;;;4798906;29;20050;-90
2021/09/24 11:55:37;;;;;;;9.25;6.10;;;21.50;77.50;;;;;;4789403;29;20070;-83
2021/09/24 11:58:11;;;;;;;10.20;6.97;;;21.50;77.60;;;;;;4804619;29;20131;-78
2021/09/24 12:00:48;;;;;;;8.40;6.38;;;21.60;78.00;;;;;;4796415;29;20092;-77
2021/09/24 12:03:20;;;;;;;10.80;6.95;;;21.60;77.40;;;;;;4790017;29;20059;-80
2021/09/24 12:05:49;;;;;;;;;;;21.60;77.10;;;;;;4803986;29;20055;-79
2021/09/24 12:08:19;;;;;;;9.10;5.85;;;21.60;77.10;;;;;;4800449;29;19929;-84
2021/09/24 12:10:54;;;;;;;10.48;7.20;;;21.60;77.20;;;;;;4819416;29;20046;-85
2021/09/24 12:13:21;;;;;;;13.32;8.27;;;21.80;77.00;;;;;;4811650;29;20049;-85
2021/09/24 12:15:55;;;;;;;13.95;9.30;;;21.80;76.40;;;;;;4811695;29;20510;-84
2021/09/24 12:18:25;;;;;;;10.95;7.75;;;21.80;76.40;;;;;;4849164;29;20046;-84
2021/09/24 12:21:01;;;;;;;9.05;6.57;;;21.70;76.50;;;;;;4841687;29;20397;-84
2021/09/24 12:23:29;;;;;;;11.75;7.85;;;21.70;76.70;;;;;;4835971;29;20049;-84
2021/09/24 12:26:05;;;;;;;9.73;6.68;;;21.70;76.70;;;;;;4821694;29;20091;-83
2021/09/24 12:28:32;;;;;;;12.38;8.43;;;21.70;76.70;;;;;;4853815;29;20042;-83
2021/09/24 12:30:59;;;;;;;11.50;7.40;;;21.70;76.50;;;;;;4810072;29;20038;-82
2021/09/24 12:33:26;;;;;;;9.85;7.85;;;21.80;76.10;;;;;;4824363;29;20126;-82
2021/09/24 12:36:03;;;;;;;13.13;8.40;;;21.70;75.90;;;;;;4824448;29;20117;-83
2021/09/24 12:38:33;;;;;;;10.40;6.82;;;21.70;76.10;;;;;;4836541;29;20078;-83
2021/09/24 12:41:18;;;;;;;9.13;6.57;;;21.60;76.20;;;;;;4824251;29;20077;-83
2021/09/24 12:43:46;;;;;;;8.38;5.32;;;21.70;76.10;;;;;;4825030;29;20056;-84
2021/09/24 12:46:14;;;;;;;9.35;5.97;;;21.60;76.20;;;;;;4851930;29;20054;-82
2021/09/24 12:48:46;;;;;;;8.23;6.38;;;21.60;76.70;;;;;;4840342;29;20128;-84
2021/09/24 12:51:14;;;;;;;6.57;4.82;;;21.50;76.10;;;;;;4841290;29;20057;-83
2021/09/24 12:53:43;;;;;;;5.53;4.18;;;21.50;76.40;;;;;;4841280;29;20095;-82
2021/09/24 12:56:12;;;;;;;5.55;3.80;;;21.40;76.60;;;;;;4837384;29;20054;-81